sensor_id;sensor_type;location;lat;lon;timestamp;temperature;humidity
10263;DHT22;5177;50.068;8.156;2024-02-26T00:01:27;8.20;1.00
10263;DHT22;5177;50.068;8.156;2024-02-26T00:03:53;8.20;1.00
10263;DHT22;5177;50.068;8.156;2024-02-26T00:06:20;8.20;1.00
10263;DHT22;5177;50.068;8.156;2024-02-26T00:08:45;8.20;1.00
10263;DHT22;5177;50.068;8.156;2024-02-26T00:11:11;8.30;1.00
10263;DHT22;5177;50.068;8.156;2024-02-26T00:13:36;8.20;1.00
10263;DHT22;5177;50.068;8.156;2024-02-26T00:16:03;8.20;1.00
10263;DHT22;5177;50.068;8.156;2024-02-26T00:18:28;8.20;1.00
10263;DHT22;5177;50.068;8.156;2024-02-26T00:20:54;8.30;1.00
10263;DHT22;5177;50.068;8.156;2024-02-26T00:23:19;8.20;1.00
10263;DHT22;5177;50.068;8.156;2024-02-26T00:25:45;8.20;1.00
10263;DHT22;5177;50.068;8.156;2024-02-26T00:28:11;8.20;1.00
10263;DHT22;5177;50.068;8.156;2024-02-26T00:30:38;8.30;1.00
10263;DHT22;5177;50.068;8.156;2024-02-26T00:33:03;8.20;1.00
10263;DHT22;5177;50.068;8.156;2024-02-26T00:35:29;8.20;1.00
10263;DHT22;5177;50.068;8.156;2024-02-26T00:37:54;8.20;1.00
10263;DHT22;5177;50.068;8.156;2024-02-26T00:40:20;8.30;1.00
10263;DHT22;5177;50.068;8.156;2024-02-26T00:42:45;8.30;1.00
10263;DHT22;5177;50.068;8.156;2024-02-26T00:45:11;8.20;1.00
10263;DHT22;5177;50.068;8.156;2024-02-26T00:47:37;8.20;1.00
10263;DHT22;5177;50.068;8.156;2024-02-26T00:50:03;8.20;1.00
10263;DHT22;5177;50.068;8.156;2024-02-26T00:52:28;8.20;1.00
10263;DHT22;5177;50.068;8.156;2024-02-26T00:54:54;8.20;1.00
10263;DHT22;5177;50.068;8.156;2024-02-26T00:57:19;8.20;1.00
10263;DHT22;5177;50.068;8.156;2024-02-26T00:59:45;8.20;1.00
10263;DHT22;5177;50.068;8.156;2024-02-26T01:02:10;8.20;1.00
10263;DHT22;5177;50.068;8.156;2024-02-26T01:04:36;8.20;1.00
10263;DHT22;5177;50.068;8.156;2024-02-26T01:07:01;8.20;1.00
10263;DHT22;5177;50.068;8.156;2024-02-26T01:09:27;8.20;1.00
10263;DHT22;5177;50.068;8.156;2024-02-26T01:11:53;8.20;1.00
10263;DHT22;5177;50.068;8.156;2024-02-26T01:14:18;8.20;1.00
10263;DHT22;5177;50.068;8.156;2024-02-26T01:16:44;8.20;1.00
10263;DHT22;5177;50.068;8.156;2024-02-26T01:19:09;8.30;1.00
10263;DHT22;5177;50.068;8.156;2024-02-26T01:21:35;8.20;1.00
10263;DHT22;5177;50.068;8.156;2024-02-26T01:24:00;8.10;1.00
10263;DHT22;5177;50.068;8.156;2024-02-26T01:26:26;8.20;1.00
10263;DHT22;5177;50.068;8.156;2024-02-26T01:28:51;8.30;1.00
10263;DHT22;5177;50.068;8.156;2024-02-26T01:31:17;8.20;1.00
10263;DHT22;5177;50.068;8.156;2024-02-26T01:33:42;8.20;1.00
10263;DHT22;5177;50.068;8.156;2024-02-26T01:36:08;8.20;1.00
10263;DHT22;5177;50.068;8.156;2024-02-26T01:38:33;8.10;1.00
10263;DHT22;5177;50.068;8.156;2024-02-26T01:40:59;8.10;1.00
10263;DHT22;5177;50.068;8.156;2024-02-26T01:43:24;8.10;1.00
10263;DHT22;5177;50.068;8.156;2024-02-26T01:45:50;8.10;1.00
10263;DHT22;5177;50.068;8.156;2024-02-26T01:48:15;8.10;1.00
10263;DHT22;5177;50.068;8.156;2024-02-26T01:50:41;8.10;1.00
10263;DHT22;5177;50.068;8.156;2024-02-26T01:56:09;8.10;1.00
10263;DHT22;5177;50.068;8.156;2024-02-26T01:58:35;8.10;1.00
10263;DHT22;5177;50.068;8.156;2024-02-26T02:01:01;8.10;1.00
10263;DHT22;5177;50.068;8.156;2024-02-26T02:03:27;8.10;1.00
10263;DHT22;5177;50.068;8.156;2024-02-26T02:05:53;8.10;1.00
10263;DHT22;5177;50.068;8.156;2024-02-26T02:08:18;8.10;1.00
10263;DHT22;5177;50.068;8.156;2024-02-26T02:10:44;8.10;1.00
10263;DHT22;5177;50.068;8.156;2024-02-26T02:13:13;8.10;1.00
10263;DHT22;5177;50.068;8.156;2024-02-26T02:15:39;8.10;1.00
10263;DHT22;5177;50.068;8.156;2024-02-26T02:18:04;8.20;1.00
10263;DHT22;5177;50.068;8.156;2024-02-26T02:20:33;8.20;1.00
10263;DHT22;5177;50.068;8.156;2024-02-26T02:23:02;8.20;1.00
10263;DHT22;5177;50.068;8.156;2024-02-26T02:25:28;8.20;1.00
10263;DHT22;5177;50.068;8.156;2024-02-26T02:27:53;8.10;1.00
10263;DHT22;5177;50.068;8.156;2024-02-26T02:30:20;8.10;1.00
10263;DHT22;5177;50.068;8.156;2024-02-26T02:32:46;8.10;1.00
10263;DHT22;5177;50.068;8.156;2024-02-26T02:35:11;8.10;1.00
10263;DHT22;5177;50.068;8.156;2024-02-26T02:37:37;8.00;1.00
10263;DHT22;5177;50.068;8.156;2024-02-26T02:40:02;8.10;1.00
10263;DHT22;5177;50.068;8.156;2024-02-26T02:42:28;8.10;1.00
10263;DHT22;5177;50.068;8.156;2024-02-26T02:44:54;8.10;1.00
10263;DHT22;5177;50.068;8.156;2024-02-26T02:47:20;8.10;1.00
10263;DHT22;5177;50.068;8.156;2024-02-26T02:49:45;8.00;1.00
10263;DHT22;5177;50.068;8.156;2024-02-26T02:52:11;8.00;1.00
10263;DHT22;5177;50.068;8.156;2024-02-26T02:54:36;8.00;1.00
10263;DHT22;5177;50.068;8.156;2024-02-26T02:57:05;8.00;1.00
10263;DHT22;5177;50.068;8.156;2024-02-26T02:59:31;8.00;1.00
10263;DHT22;5177;50.068;8.156;2024-02-26T03:02:05;8.00;1.00
10263;DHT22;5177;50.068;8.156;2024-02-26T03:04:31;8.10;1.00
10263;DHT22;5177;50.068;8.156;2024-02-26T03:06:57;8.10;1.00
10263;DHT22;5177;50.068;8.156;2024-02-26T03:09:23;8.00;1.00
10263;DHT22;5177;50.068;8.156;2024-02-26T03:11:48;8.00;1.00
10263;DHT22;5177;50.068;8.156;2024-02-26T03:14:14;8.00;1.00
10263;DHT22;5177;50.068;8.156;2024-02-26T03:16:40;8.00;5.40
10263;DHT22;5177;50.068;8.156;2024-02-26T03:19:05;8.00;99.90
10263;DHT22;5177;50.068;8.156;2024-02-26T03:21:46;7.90;99.90
10263;DHT22;5177;50.068;8.156;2024-02-26T03:24:11;7.90;99.90
10263;DHT22;5177;50.068;8.156;2024-02-26T03:26:37;7.90;99.90
10263;DHT22;5177;50.068;8.156;2024-02-26T03:29:03;7.90;99.90
10263;DHT22;5177;50.068;8.156;2024-02-26T03:31:29;7.90;99.90
10263;DHT22;5177;50.068;8.156;2024-02-26T03:33:54;7.90;99.90
10263;DHT22;5177;50.068;8.156;2024-02-26T03:36:20;7.80;99.90
10263;DHT22;5177;50.068;8.156;2024-02-26T03:38:47;7.80;1.00
10263;DHT22;5177;50.068;8.156;2024-02-26T03:41:12;7.70;1.00
10263;DHT22;5177;50.068;8.156;2024-02-26T03:43:38;7.70;1.00
10263;DHT22;5177;50.068;8.156;2024-02-26T03:46:03;7.70;1.00
10263;DHT22;5177;50.068;8.156;2024-02-26T03:48:29;7.60;1.00
10263;DHT22;5177;50.068;8.156;2024-02-26T03:50:54;7.60;1.00
10263;DHT22;5177;50.068;8.156;2024-02-26T03:53:20;7.50;1.00
10263;DHT22;5177;50.068;8.156;2024-02-26T03:55:54;7.60;1.00
10263;DHT22;5177;50.068;8.156;2024-02-26T03:58:20;7.50;99.90
10263;DHT22;5177;50.068;8.156;2024-02-26T04:00:46;7.40;99.90
10263;DHT22;5177;50.068;8.156;2024-02-26T04:03:13;7.30;99.90
10263;DHT22;5177;50.068;8.156;2024-02-26T04:05:38;7.30;99.90
10263;DHT22;5177;50.068;8.156;2024-02-26T04:08:04;7.30;1.00
10263;DHT22;5177;50.068;8.156;2024-02-26T04:10:32;7.20;1.00
10263;DHT22;5177;50.068;8.156;2024-02-26T04:12:57;7.10;99.90
10263;DHT22;5177;50.068;8.156;2024-02-26T04:15:23;7.00;1.00
10263;DHT22;5177;50.068;8.156;2024-02-26T04:17:48;7.10;99.90
10263;DHT22;5177;50.068;8.156;2024-02-26T04:20:14;7.00;99.90
10263;DHT22;5177;50.068;8.156;2024-02-26T04:22:41;7.10;1.00
10263;DHT22;5177;50.068;8.156;2024-02-26T04:25:06;7.10;1.00
10263;DHT22;5177;50.068;8.156;2024-02-26T04:27:32;7.10;1.00
10263;DHT22;5177;50.068;8.156;2024-02-26T04:29:57;7.10;99.90
10263;DHT22;5177;50.068;8.156;2024-02-26T04:32:23;7.00;99.90
10263;DHT22;5177;50.068;8.156;2024-02-26T04:34:48;7.00;99.90
10263;DHT22;5177;50.068;8.156;2024-02-26T04:40:17;6.90;67.00
10263;DHT22;5177;50.068;8.156;2024-02-26T04:42:43;6.90;93.90
10263;DHT22;5177;50.068;8.156;2024-02-26T04:45:08;6.90;1.00
10263;DHT22;5177;50.068;8.156;2024-02-26T04:47:34;6.80;32.80
10263;DHT22;5177;50.068;8.156;2024-02-26T04:50:04;6.80;99.90
10263;DHT22;5177;50.068;8.156;2024-02-26T04:52:30;6.80;1.00
10263;DHT22;5177;50.068;8.156;2024-02-26T04:54:55;6.80;1.00
10263;DHT22;5177;50.068;8.156;2024-02-26T05:03:27;6.80;1.00
10263;DHT22;5177;50.068;8.156;2024-02-26T05:08:38;6.80;1.00
10263;DHT22;5177;50.068;8.156;2024-02-26T05:11:04;6.80;99.90
10263;DHT22;5177;50.068;8.156;2024-02-26T05:13:30;6.80;99.90
10263;DHT22;5177;50.068;8.156;2024-02-26T05:15:55;6.70;99.90
10263;DHT22;5177;50.068;8.156;2024-02-26T05:18:23;6.70;1.00
10263;DHT22;5177;50.068;8.156;2024-02-26T05:20:49;6.70;1.00
10263;DHT22;5177;50.068;8.156;2024-02-26T05:23:14;6.70;1.00
10263;DHT22;5177;50.068;8.156;2024-02-26T05:25:40;6.70;1.00
10263;DHT22;5177;50.068;8.156;2024-02-26T05:28:06;6.70;1.00
10263;DHT22;5177;50.068;8.156;2024-02-26T05:30:32;6.70;1.00
10263;DHT22;5177;50.068;8.156;2024-02-26T05:32:57;6.60;99.90
10263;DHT22;5177;50.068;8.156;2024-02-26T05:35:23;6.70;1.00
10263;DHT22;5177;50.068;8.156;2024-02-26T05:37:48;6.60;1.00
10263;DHT22;5177;50.068;8.156;2024-02-26T05:40:14;6.60;77.20
10263;DHT22;5177;50.068;8.156;2024-02-26T05:42:39;6.70;93.90
10263;DHT22;5177;50.068;8.156;2024-02-26T05:45:05;6.70;4.20
10263;DHT22;5177;50.068;8.156;2024-02-26T05:47:34;6.70;1.80
10263;DHT22;5177;50.068;8.156;2024-02-26T05:50:00;6.70;1.00
10263;DHT22;5177;50.068;8.156;2024-02-26T05:52:26;6.70;1.00
10263;DHT22;5177;50.068;8.156;2024-02-26T05:54:53;6.80;1.00
10263;DHT22;5177;50.068;8.156;2024-02-26T05:57:19;6.80;1.00
10263;DHT22;5177;50.068;8.156;2024-02-26T05:59:44;6.70;1.00
10263;DHT22;5177;50.068;8.156;2024-02-26T06:02:12;6.70;99.90
10263;DHT22;5177;50.068;8.156;2024-02-26T06:04:37;6.60;99.90
10263;DHT22;5177;50.068;8.156;2024-02-26T06:07:04;6.60;99.90
10263;DHT22;5177;50.068;8.156;2024-02-26T06:09:30;6.60;28.40
10263;DHT22;5177;50.068;8.156;2024-02-26T06:11:56;6.60;1.00
10263;DHT22;5177;50.068;8.156;2024-02-26T06:14:21;6.60;99.90
10263;DHT22;5177;50.068;8.156;2024-02-26T06:16:47;6.60;99.90
10263;DHT22;5177;50.068;8.156;2024-02-26T06:19:13;6.50;99.90
10263;DHT22;5177;50.068;8.156;2024-02-26T06:21:38;6.40;1.00
10263;DHT22;5177;50.068;8.156;2024-02-26T06:24:04;6.50;1.00
10263;DHT22;5177;50.068;8.156;2024-02-26T06:26:29;6.50;1.00
10263;DHT22;5177;50.068;8.156;2024-02-26T06:28:55;6.40;1.00
10263;DHT22;5177;50.068;8.156;2024-02-26T06:31:21;6.40;1.00
10263;DHT22;5177;50.068;8.156;2024-02-26T06:33:48;6.40;24.40
10263;DHT22;5177;50.068;8.156;2024-02-26T06:36:13;6.40;99.90
10263;DHT22;5177;50.068;8.156;2024-02-26T06:38:39;6.50;97.70
10263;DHT22;5177;50.068;8.156;2024-02-26T06:41:05;6.60;99.90
10263;DHT22;5177;50.068;8.156;2024-02-26T06:43:30;6.50;99.90
10263;DHT22;5177;50.068;8.156;2024-02-26T06:45:56;6.60;99.90
10263;DHT22;5177;50.068;8.156;2024-02-26T06:48:23;6.50;99.90
10263;DHT22;5177;50.068;8.156;2024-02-26T06:50:48;6.60;99.90
10263;DHT22;5177;50.068;8.156;2024-02-26T06:53:14;6.60;98.70
10263;DHT22;5177;50.068;8.156;2024-02-26T06:55:39;6.60;99.90
10263;DHT22;5177;50.068;8.156;2024-02-26T06:58:06;6.50;99.90
10263;DHT22;5177;50.068;8.156;2024-02-26T07:00:31;6.50;99.90
10263;DHT22;5177;50.068;8.156;2024-02-26T07:02:58;6.60;99.90
10263;DHT22;5177;50.068;8.156;2024-02-26T07:05:24;6.50;99.90
10263;DHT22;5177;50.068;8.156;2024-02-26T07:07:49;6.60;99.90
10263;DHT22;5177;50.068;8.156;2024-02-26T07:10:15;6.60;99.90
10263;DHT22;5177;50.068;8.156;2024-02-26T07:12:40;6.60;99.90
10263;DHT22;5177;50.068;8.156;2024-02-26T07:15:06;6.60;98.40
10263;DHT22;5177;50.068;8.156;2024-02-26T07:17:33;6.60;99.90
10263;DHT22;5177;50.068;8.156;2024-02-26T07:19:59;6.60;99.90
10263;DHT22;5177;50.068;8.156;2024-02-26T07:22:25;6.60;99.90
10263;DHT22;5177;50.068;8.156;2024-02-26T07:24:50;6.60;89.20
10263;DHT22;5177;50.068;8.156;2024-02-26T07:27:18;6.60;99.90
10263;DHT22;5177;50.068;8.156;2024-02-26T07:29:44;6.50;99.90
10263;DHT22;5177;50.068;8.156;2024-02-26T07:32:09;6.50;99.90
10263;DHT22;5177;50.068;8.156;2024-02-26T07:34:36;6.60;98.70
10263;DHT22;5177;50.068;8.156;2024-02-26T07:37:04;6.60;93.60
10263;DHT22;5177;50.068;8.156;2024-02-26T07:39:36;6.60;99.90
10263;DHT22;5177;50.068;8.156;2024-02-26T07:42:02;6.60;97.30
10263;DHT22;5177;50.068;8.156;2024-02-26T07:44:27;6.60;96.10
10263;DHT22;5177;50.068;8.156;2024-02-26T07:46:53;6.50;90.40
10263;DHT22;5177;50.068;8.156;2024-02-26T07:49:18;6.50;99.90
10263;DHT22;5177;50.068;8.156;2024-02-26T07:51:44;6.60;99.90
10263;DHT22;5177;50.068;8.156;2024-02-26T07:54:10;6.60;99.90
10263;DHT22;5177;50.068;8.156;2024-02-26T07:56:35;6.50;99.90
10263;DHT22;5177;50.068;8.156;2024-02-26T07:59:01;6.50;99.90
10263;DHT22;5177;50.068;8.156;2024-02-26T08:01:27;6.50;99.90
10263;DHT22;5177;50.068;8.156;2024-02-26T08:03:53;6.50;99.90
10263;DHT22;5177;50.068;8.156;2024-02-26T08:06:18;6.50;99.90
10263;DHT22;5177;50.068;8.156;2024-02-26T08:08:44;6.50;98.40
10263;DHT22;5177;50.068;8.156;2024-02-26T08:11:09;6.50;99.90
10263;DHT22;5177;50.068;8.156;2024-02-26T08:13:35;6.50;99.90
10263;DHT22;5177;50.068;8.156;2024-02-26T08:16:01;6.60;99.90
10263;DHT22;5177;50.068;8.156;2024-02-26T08:18:26;6.60;99.90
10263;DHT22;5177;50.068;8.156;2024-02-26T08:20:52;6.60;99.90
10263;DHT22;5177;50.068;8.156;2024-02-26T08:23:18;6.60;99.90
10263;DHT22;5177;50.068;8.156;2024-02-26T08:25:43;6.60;99.90
10263;DHT22;5177;50.068;8.156;2024-02-26T08:28:09;6.70;99.90
10263;DHT22;5177;50.068;8.156;2024-02-26T08:30:38;6.70;99.90
10263;DHT22;5177;50.068;8.156;2024-02-26T08:33:04;6.70;99.90
10263;DHT22;5177;50.068;8.156;2024-02-26T08:35:29;6.70;99.90
10263;DHT22;5177;50.068;8.156;2024-02-26T08:37:55;6.80;99.90
10263;DHT22;5177;50.068;8.156;2024-02-26T08:40:21;6.90;99.90
10263;DHT22;5177;50.068;8.156;2024-02-26T08:42:46;7.00;83.20
10263;DHT22;5177;50.068;8.156;2024-02-26T08:45:12;7.00;80.30
10263;DHT22;5177;50.068;8.156;2024-02-26T08:47:40;7.00;99.90
10263;DHT22;5177;50.068;8.156;2024-02-26T08:50:06;7.00;78.60
10263;DHT22;5177;50.068;8.156;2024-02-26T08:52:31;6.90;99.90
10263;DHT22;5177;50.068;8.156;2024-02-26T08:54:58;7.00;99.90
10263;DHT22;5177;50.068;8.156;2024-02-26T08:57:24;7.00;99.90
10263;DHT22;5177;50.068;8.156;2024-02-26T08:59:52;7.00;99.90
10263;DHT22;5177;50.068;8.156;2024-02-26T09:02:17;7.00;99.90
10263;DHT22;5177;50.068;8.156;2024-02-26T09:04:45;7.00;99.90
10263;DHT22;5177;50.068;8.156;2024-02-26T09:07:10;7.10;99.90
10263;DHT22;5177;50.068;8.156;2024-02-26T09:09:36;7.10;99.90
10263;DHT22;5177;50.068;8.156;2024-02-26T09:12:01;7.10;99.90
10263;DHT22;5177;50.068;8.156;2024-02-26T09:14:27;7.10;99.90
10263;DHT22;5177;50.068;8.156;2024-02-26T09:16:52;7.10;95.30
10263;DHT22;5177;50.068;8.156;2024-02-26T09:19:18;7.00;59.20
10263;DHT22;5177;50.068;8.156;2024-02-26T09:21:44;7.00;63.80
10263;DHT22;5177;50.068;8.156;2024-02-26T09:24:10;7.00;90.10
10263;DHT22;5177;50.068;8.156;2024-02-26T09:26:36;7.10;99.90
10263;DHT22;5177;50.068;8.156;2024-02-26T09:29:02;7.10;99.90
10263;DHT22;5177;50.068;8.156;2024-02-26T09:31:29;7.20;92.90
10263;DHT22;5177;50.068;8.156;2024-02-26T09:33:54;7.20;96.40
10263;DHT22;5177;50.068;8.156;2024-02-26T09:36:20;7.20;99.90
10263;DHT22;5177;50.068;8.156;2024-02-26T09:38:46;7.30;82.90
10263;DHT22;5177;50.068;8.156;2024-02-26T09:41:15;7.30;1.00
10263;DHT22;5177;50.068;8.156;2024-02-26T09:43:44;7.40;1.00
10263;DHT22;5177;50.068;8.156;2024-02-26T09:46:11;7.40;1.00
10263;DHT22;5177;50.068;8.156;2024-02-26T09:48:37;7.60;1.00
10263;DHT22;5177;50.068;8.156;2024-02-26T09:51:03;7.60;1.00
10263;DHT22;5177;50.068;8.156;2024-02-26T09:53:29;7.70;1.00
10263;DHT22;5177;50.068;8.156;2024-02-26T09:56:00;7.80;42.80
10263;DHT22;5177;50.068;8.156;2024-02-26T09:58:27;7.90;1.00
10263;DHT22;5177;50.068;8.156;2024-02-26T10:00:55;7.90;1.00
10263;DHT22;5177;50.068;8.156;2024-02-26T10:03:28;8.00;1.00
10263;DHT22;5177;50.068;8.156;2024-02-26T10:05:56;8.00;99.90
10263;DHT22;5177;50.068;8.156;2024-02-26T10:08:22;8.00;1.00
10263;DHT22;5177;50.068;8.156;2024-02-26T10:10:49;8.00;99.90
10263;DHT22;5177;50.068;8.156;2024-02-26T10:13:15;8.00;1.00
10263;DHT22;5177;50.068;8.156;2024-02-26T10:15:40;8.00;99.90
10263;DHT22;5177;50.068;8.156;2024-02-26T10:18:06;8.10;1.00
10263;DHT22;5177;50.068;8.156;2024-02-26T10:20:31;8.20;99.90
10263;DHT22;5177;50.068;8.156;2024-02-26T10:22:57;8.30;95.20
10263;DHT22;5177;50.068;8.156;2024-02-26T10:25:23;8.40;99.90
10263;DHT22;5177;50.068;8.156;2024-02-26T10:27:48;8.40;1.00
10263;DHT22;5177;50.068;8.156;2024-02-26T10:30:18;8.50;1.00
10263;DHT22;5177;50.068;8.156;2024-02-26T10:32:44;8.50;99.90
10263;DHT22;5177;50.068;8.156;2024-02-26T10:35:10;8.50;99.90
10263;DHT22;5177;50.068;8.156;2024-02-26T10:37:35;8.50;99.90
10263;DHT22;5177;50.068;8.156;2024-02-26T10:40:01;8.60;1.00
10263;DHT22;5177;50.068;8.156;2024-02-26T10:42:26;8.50;1.00
10263;DHT22;5177;50.068;8.156;2024-02-26T10:44:52;8.60;97.30
10263;DHT22;5177;50.068;8.156;2024-02-26T10:47:17;8.60;1.00
10263;DHT22;5177;50.068;8.156;2024-02-26T10:49:46;8.60;99.90
10263;DHT22;5177;50.068;8.156;2024-02-26T10:52:13;8.60;1.00
10263;DHT22;5177;50.068;8.156;2024-02-26T10:54:41;8.70;1.00
10263;DHT22;5177;50.068;8.156;2024-02-26T10:57:06;8.60;99.90
10263;DHT22;5177;50.068;8.156;2024-02-26T10:59:33;8.60;99.90
10263;DHT22;5177;50.068;8.156;2024-02-26T11:02:00;8.60;1.00
10263;DHT22;5177;50.068;8.156;2024-02-26T11:04:25;8.60;99.90
10263;DHT22;5177;50.068;8.156;2024-02-26T11:06:52;8.70;1.00
10263;DHT22;5177;50.068;8.156;2024-02-26T11:09:20;8.90;54.00
10263;DHT22;5177;50.068;8.156;2024-02-26T11:11:47;9.00;99.90
10263;DHT22;5177;50.068;8.156;2024-02-26T11:14:13;9.10;99.90
10263;DHT22;5177;50.068;8.156;2024-02-26T11:16:39;9.10;1.00
10263;DHT22;5177;50.068;8.156;2024-02-26T11:19:06;9.00;99.90
10263;DHT22;5177;50.068;8.156;2024-02-26T11:21:34;9.10;99.90
10263;DHT22;5177;50.068;8.156;2024-02-26T11:24:07;9.10;99.90
10263;DHT22;5177;50.068;8.156;2024-02-26T11:26:38;9.20;89.70
10263;DHT22;5177;50.068;8.156;2024-02-26T11:29:05;9.20;1.00
10263;DHT22;5177;50.068;8.156;2024-02-26T11:31:31;9.30;1.00
10263;DHT22;5177;50.068;8.156;2024-02-26T11:33:57;9.40;24.00
10263;DHT22;5177;50.068;8.156;2024-02-26T11:36:23;9.40;99.90
10263;DHT22;5177;50.068;8.156;2024-02-26T11:38:49;9.30;1.00
10263;DHT22;5177;50.068;8.156;2024-02-26T11:41:17;9.30;99.90
10263;DHT22;5177;50.068;8.156;2024-02-26T11:43:49;9.30;1.00
10263;DHT22;5177;50.068;8.156;2024-02-26T11:46:31;9.40;99.90
10263;DHT22;5177;50.068;8.156;2024-02-26T11:49:01;9.40;1.00
10263;DHT22;5177;50.068;8.156;2024-02-26T11:51:28;9.60;1.00
10263;DHT22;5177;50.068;8.156;2024-02-26T11:53:57;9.70;1.00
10263;DHT22;5177;50.068;8.156;2024-02-26T11:56:24;10.00;99.90
10263;DHT22;5177;50.068;8.156;2024-02-26T11:59:04;10.20;99.90
10263;DHT22;5177;50.068;8.156;2024-02-26T12:01:38;10.60;1.00
10263;DHT22;5177;50.068;8.156;2024-02-26T12:04:04;10.80;1.00
10263;DHT22;5177;50.068;8.156;2024-02-26T12:06:30;10.80;1.00
10263;DHT22;5177;50.068;8.156;2024-02-26T12:08:56;10.80;1.00
10263;DHT22;5177;50.068;8.156;2024-02-26T12:11:21;10.80;99.90
10263;DHT22;5177;50.068;8.156;2024-02-26T12:13:47;10.80;99.90
10263;DHT22;5177;50.068;8.156;2024-02-26T12:16:34;10.70;99.90
10263;DHT22;5177;50.068;8.156;2024-02-26T12:18:59;10.50;99.90
10263;DHT22;5177;50.068;8.156;2024-02-26T12:21:25;10.60;99.90
10263;DHT22;5177;50.068;8.156;2024-02-26T12:23:51;10.50;99.90
10263;DHT22;5177;50.068;8.156;2024-02-26T12:26:16;10.50;99.90
10263;DHT22;5177;50.068;8.156;2024-02-26T12:28:42;10.40;99.90
10263;DHT22;5177;50.068;8.156;2024-02-26T12:31:07;10.40;99.90
10263;DHT22;5177;50.068;8.156;2024-02-26T12:33:33;10.40;99.90
10263;DHT22;5177;50.068;8.156;2024-02-26T12:35:59;10.40;99.90
10263;DHT22;5177;50.068;8.156;2024-02-26T12:38:25;10.40;99.90
10263;DHT22;5177;50.068;8.156;2024-02-26T12:40:51;10.40;99.90
10263;DHT22;5177;50.068;8.156;2024-02-26T12:43:18;10.40;99.90
10263;DHT22;5177;50.068;8.156;2024-02-26T12:45:43;10.50;1.00
10263;DHT22;5177;50.068;8.156;2024-02-26T12:48:12;10.50;99.90
10263;DHT22;5177;50.068;8.156;2024-02-26T12:50:38;10.60;99.90
10263;DHT22;5177;50.068;8.156;2024-02-26T12:53:04;10.60;99.90
10263;DHT22;5177;50.068;8.156;2024-02-26T12:55:30;10.70;1.00
10263;DHT22;5177;50.068;8.156;2024-02-26T12:57:59;10.70;1.00
10263;DHT22;5177;50.068;8.156;2024-02-26T13:00:25;10.70;1.00
10263;DHT22;5177;50.068;8.156;2024-02-26T13:02:51;10.80;1.00
10263;DHT22;5177;50.068;8.156;2024-02-26T13:05:18;11.00;1.00
10263;DHT22;5177;50.068;8.156;2024-02-26T13:07:44;11.00;99.90
10263;DHT22;5177;50.068;8.156;2024-02-26T13:10:12;11.10;99.90
10263;DHT22;5177;50.068;8.156;2024-02-26T13:12:44;11.10;99.90
10263;DHT22;5177;50.068;8.156;2024-02-26T13:15:14;11.20;99.90
10263;DHT22;5177;50.068;8.156;2024-02-26T13:17:39;11.30;99.90
10263;DHT22;5177;50.068;8.156;2024-02-26T13:20:05;11.20;99.90
10263;DHT22;5177;50.068;8.156;2024-02-26T13:22:31;11.20;99.90
10263;DHT22;5177;50.068;8.156;2024-02-26T13:24:59;11.20;99.90
10263;DHT22;5177;50.068;8.156;2024-02-26T13:27:25;11.40;99.90
10263;DHT22;5177;50.068;8.156;2024-02-26T13:30:10;11.70;34.40
10263;DHT22;5177;50.068;8.156;2024-02-26T13:32:36;11.80;1.00
10263;DHT22;5177;50.068;8.156;2024-02-26T13:35:05;11.80;1.00
10263;DHT22;5177;50.068;8.156;2024-02-26T13:37:31;11.80;1.00
10263;DHT22;5177;50.068;8.156;2024-02-26T13:39:57;12.00;1.00
10263;DHT22;5177;50.068;8.156;2024-02-26T13:42:22;12.10;1.00
10263;DHT22;5177;50.068;8.156;2024-02-26T13:44:48;12.20;1.00
10263;DHT22;5177;50.068;8.156;2024-02-26T13:47:13;12.30;1.00
10263;DHT22;5177;50.068;8.156;2024-02-26T13:49:39;12.10;1.00
10263;DHT22;5177;50.068;8.156;2024-02-26T13:52:05;12.00;1.00
10263;DHT22;5177;50.068;8.156;2024-02-26T13:54:31;11.90;1.00
10263;DHT22;5177;50.068;8.156;2024-02-26T13:56:56;11.90;1.00
10263;DHT22;5177;50.068;8.156;2024-02-26T13:59:21;11.90;1.00
10263;DHT22;5177;50.068;8.156;2024-02-26T14:01:47;11.70;1.00
10263;DHT22;5177;50.068;8.156;2024-02-26T14:04:12;11.70;1.00
10263;DHT22;5177;50.068;8.156;2024-02-26T14:06:38;11.70;1.00
10263;DHT22;5177;50.068;8.156;2024-02-26T14:09:04;11.50;1.00
10263;DHT22;5177;50.068;8.156;2024-02-26T14:11:30;11.40;21.80
10263;DHT22;5177;50.068;8.156;2024-02-26T14:13:56;11.50;99.90
10263;DHT22;5177;50.068;8.156;2024-02-26T14:16:22;11.40;99.90
10263;DHT22;5177;50.068;8.156;2024-02-26T14:18:47;11.30;99.90
10263;DHT22;5177;50.068;8.156;2024-02-26T14:21:13;11.40;44.20
10263;DHT22;5177;50.068;8.156;2024-02-26T14:23:38;11.20;99.90
10263;DHT22;5177;50.068;8.156;2024-02-26T14:26:04;11.10;99.90
10263;DHT22;5177;50.068;8.156;2024-02-26T14:28:30;11.00;99.90
10263;DHT22;5177;50.068;8.156;2024-02-26T14:30:57;11.00;99.90
10263;DHT22;5177;50.068;8.156;2024-02-26T14:33:22;10.90;99.90
10263;DHT22;5177;50.068;8.156;2024-02-26T14:35:48;10.90;99.90
10263;DHT22;5177;50.068;8.156;2024-02-26T14:38:13;10.90;99.90
10263;DHT22;5177;50.068;8.156;2024-02-26T14:40:39;10.90;99.90
10263;DHT22;5177;50.068;8.156;2024-02-26T14:43:04;10.80;1.00
10263;DHT22;5177;50.068;8.156;2024-02-26T14:45:30;10.80;99.90
10263;DHT22;5177;50.068;8.156;2024-02-26T14:47:57;10.80;1.00
10263;DHT22;5177;50.068;8.156;2024-02-26T14:50:22;10.70;1.00
10263;DHT22;5177;50.068;8.156;2024-02-26T14:52:48;10.90;1.00
10263;DHT22;5177;50.068;8.156;2024-02-26T14:55:13;10.90;99.90
10263;DHT22;5177;50.068;8.156;2024-02-26T14:57:39;10.90;99.90
10263;DHT22;5177;50.068;8.156;2024-02-26T15:00:04;10.90;99.90
10263;DHT22;5177;50.068;8.156;2024-02-26T15:02:32;10.90;99.90
10263;DHT22;5177;50.068;8.156;2024-02-26T15:04:57;10.90;99.90
10263;DHT22;5177;50.068;8.156;2024-02-26T15:07:23;10.90;99.90
10263;DHT22;5177;50.068;8.156;2024-02-26T15:09:48;10.90;99.90
10263;DHT22;5177;50.068;8.156;2024-02-26T15:12:14;10.90;99.90
10263;DHT22;5177;50.068;8.156;2024-02-26T15:14:40;10.90;99.90
10263;DHT22;5177;50.068;8.156;2024-02-26T15:17:07;10.80;99.90
10263;DHT22;5177;50.068;8.156;2024-02-26T15:19:35;10.80;1.00
10263;DHT22;5177;50.068;8.156;2024-02-26T15:22:02;10.90;99.90
10263;DHT22;5177;50.068;8.156;2024-02-26T15:24:27;10.80;1.00
10263;DHT22;5177;50.068;8.156;2024-02-26T15:26:53;10.80;99.90
10263;DHT22;5177;50.068;8.156;2024-02-26T15:29:18;10.90;99.90
10263;DHT22;5177;50.068;8.156;2024-02-26T15:31:44;10.90;99.90
10263;DHT22;5177;50.068;8.156;2024-02-26T15:34:10;11.00;99.90
10263;DHT22;5177;50.068;8.156;2024-02-26T15:36:35;10.90;99.90
10263;DHT22;5177;50.068;8.156;2024-02-26T15:39:01;10.80;99.90
10263;DHT22;5177;50.068;8.156;2024-02-26T15:41:27;10.80;99.90
10263;DHT22;5177;50.068;8.156;2024-02-26T15:43:53;10.70;99.90
10263;DHT22;5177;50.068;8.156;2024-02-26T15:46:18;10.60;99.90
10263;DHT22;5177;50.068;8.156;2024-02-26T15:48:44;10.60;1.00
10263;DHT22;5177;50.068;8.156;2024-02-26T15:51:18;10.50;1.00
10263;DHT22;5177;50.068;8.156;2024-02-26T15:53:43;10.50;10.00
10263;DHT22;5177;50.068;8.156;2024-02-26T15:56:09;10.60;1.00
10263;DHT22;5177;50.068;8.156;2024-02-26T15:58:34;10.50;1.00
10263;DHT22;5177;50.068;8.156;2024-02-26T16:01:00;10.40;91.00
10263;DHT22;5177;50.068;8.156;2024-02-26T16:03:25;10.50;1.00
10263;DHT22;5177;50.068;8.156;2024-02-26T16:05:51;10.60;1.00
10263;DHT22;5177;50.068;8.156;2024-02-26T16:08:17;10.50;1.00
10263;DHT22;5177;50.068;8.156;2024-02-26T16:10:46;10.50;1.00
10263;DHT22;5177;50.068;8.156;2024-02-26T16:13:12;10.50;1.00